Time;durP1;ratioP1;P1;durP2;ratioP2;P2;SDS_P1;SDS_P2;PMS_P1;PMS_P2;Temp;Humidity;BMP_temperature;BMP_pressure;BME280_temperature;BME280_humidity;BME280_pressure;Samples;Min_cycle;Max_cycle;Signal;HPM_P1;HPM_P2
2022/05/09 00:01:59;;;;;;;19.10;6.35;;;;;;;;;;5013972;28;20044;-41
2022/05/09 00:04:25;;;;;;;20.85;5.90;;;;;;;;;;5017214;28;20044;-44
2022/05/09 00:06:51;;;;;;;18.20;5.93;;;;;;;;;;5015936;28;20041;-42
2022/05/09 00:09:17;;;;;;;25.58;5.43;;;;;;;;;;5017286;28;20042;-41
2022/05/09 00:11:44;;;;;;;22.70;6.70;;;;;;;;;;5015063;28;20037;-41
2022/05/09 00:14:10;;;;;;;23.60;6.03;;;;;;;;;;5008132;28;20041;-42
2022/05/09 00:16:36;;;;;;;28.83;9.55;;;;;;;;;;5017781;28;20351;-45
2022/05/09 00:19:09;;;;;;;18.67;5.72;;;3.90;99.90;;;;;;5019305;28;20041;-42
2022/05/09 00:21:37;;;;;;;22.13;6.35;;;;;;;;;;5015169;28;20577;-43
2022/05/09 00:24:03;;;;;;;20.48;6.25;;;3.90;99.90;;;;;;5016097;28;20041;-41
2022/05/09 00:26:31;;;;;;;20.55;6.50;;;3.70;99.90;;;;;;5017885;28;20381;-42
2022/05/09 00:29:02;;;;;;;22.77;6.25;;;4.30;99.90;;;;;;5017414;28;20033;-41
2022/05/09 00:31:28;;;;;;;21.00;7.78;;;3.80;99.90;;;;;;5016246;28;20036;-40
2022/05/09 00:33:54;;;;;;;18.73;5.88;;;3.80;99.90;;;;;;5015314;28;20029;-40
2022/05/09 00:36:21;;;;;;;20.45;5.45;;;3.70;99.90;;;;;;5019759;28;20453;-41
2022/05/09 00:38:50;;;;;;;17.55;5.68;;;3.70;99.90;;;;;;5015556;28;20033;-44
2022/05/09 00:41:31;;;;;;;20.30;6.28;;;3.40;99.90;;;;;;5017956;28;20120;-41
2022/05/09 00:43:59;;;;;;;16.17;5.75;;;3.50;99.90;;;;;;5015094;28;20356;-41
2022/05/09 00:46:25;;;;;;;28.80;5.57;;;;;;;;;;5016070;28;20049;-41
2022/05/09 00:48:51;;;;;;;13.05;5.50;;;3.10;99.90;;;;;;5016735;28;20045;-42
2022/05/09 00:51:24;;;;;;;14.48;4.68;;;3.00;99.90;;;;;;5015798;28;20092;-42
2022/05/09 00:53:51;;;;;;;12.50;4.25;;;2.90;99.90;;;;;;5013095;28;20514;-41
2022/05/09 00:56:27;;;;;;;13.85;4.35;;;2.80;99.90;;;;;;5014611;28;20126;-41
2022/05/09 00:59:01;;;;;;;14.95;4.68;;;2.80;99.90;;;;;;5015803;28;20056;-41
2022/05/09 01:01:28;;;;;;;15.35;5.55;;;2.70;99.90;;;;;;5017878;28;20636;-42
2022/05/09 01:04:10;;;;;;;22.10;5.57;;;2.70;99.90;;;;;;5017314;28;20069;-42
2022/05/09 01:06:36;;;;;;;;;;;2.60;99.90;;;;;;5013476;28;20077;-41
2022/05/09 01:09:03;;;;;;;14.13;4.50;;;2.60;99.90;;;;;;5016259;28;19921;-41
2022/05/09 01:11:30;;;;;;;6.60;2.55;;;2.50;99.90;;;;;;5016606;28;20037;-40
2022/05/09 01:14:17;;;;;;;5.68;2.50;;;2.50;99.90;;;;;;5017250;28;20680;-41
2022/05/09 01:16:43;;;;;;;8.80;2.72;;;2.50;99.90;;;;;;5017199;28;20042;-41
2022/05/09 01:19:30;;;;;;;8.73;2.78;;;2.40;99.90;;;;;;5017322;28;20107;-42
2022/05/09 01:21:58;;;;;;;9.63;3.40;;;2.30;99.90;;;;;;5017522;28;20706;-41
2022/05/09 01:24:26;;;;;;;14.60;4.22;;;2.30;99.90;;;;;;5017072;28;20193;-42
2022/05/09 01:26:53;;;;;;;11.57;3.92;;;2.30;99.90;;;;;;5016676;28;20033;-42
2022/05/09 01:29:32;;;;;;;14.65;5.40;;;2.30;99.90;;;;;;5016775;28;20029;-41
2022/05/09 01:31:58;;;;;;;32.47;6.35;;;2.30;99.90;;;;;;5017629;28;20073;-41
2022/05/09 01:34:26;;;;;;;21.05;6.18;;;2.30;99.90;;;;;;5012424;28;20076;-41
2022/05/09 01:36:56;;;;;;;18.52;6.78;;;2.30;99.90;;;;;;5015284;28;20052;-42
2022/05/09 01:39:23;;;;;;;11.35;5.30;;;2.40;99.90;;;;;;5018761;28;20124;-43
2022/05/09 01:41:50;;;;;;;13.15;5.70;;;2.40;99.90;;;;;;5015511;28;20504;-42
2022/05/09 01:44:16;;;;;;;9.82;4.30;;;2.40;99.90;;;;;;5013991;28;20073;-42
2022/05/09 01:49:29;;;;;;;11.85;5.22;;;2.30;99.90;;;;;;5015320;28;20107;-41
2022/05/09 01:51:56;;;;;;;16.40;5.72;;;2.20;99.90;;;;;;5014945;28;20141;-41
2022/05/09 01:54:22;;;;;;;16.90;6.45;;;2.30;99.90;;;;;;5014638;28;20613;-41
2022/05/09 01:56:47;;;;;;;14.98;6.38;;;2.10;99.90;;;;;;5014600;28;20125;-41
2022/05/09 01:59:15;;;;;;;40.03;7.40;;;2.20;99.90;;;;;;5016853;28;21533;-41
2022/05/09 02:01:46;;;;;;;20.98;6.82;;;2.20;99.90;;;;;;5014571;28;20065;-44
2022/05/09 02:04:13;;;;;;;17.42;7.38;;;2.30;99.90;;;;;;5016177;28;20448;-41
2022/05/09 02:06:39;;;;;;;16.52;6.18;;;2.30;99.90;;;;;;5014335;28;20041;-40
2022/05/09 02:09:06;;;;;;;23.13;7.63;;;2.30;99.90;;;;;;5015975;28;20076;-42
2022/05/09 02:11:32;;;;;;;27.55;7.97;;;2.20;99.90;;;;;;5014108;28;20045;-41
2022/05/09 02:13:57;;;;;;;26.13;7.85;;;2.20;99.90;;;;;;5016132;28;20044;-41
2022/05/09 02:16:23;;;;;;;26.02;9.48;;;2.30;99.90;;;;;;5014873;28;20037;-41
2022/05/09 02:18:49;;;;;;;21.38;8.48;;;2.30;99.90;;;;;;5015049;28;20076;-42
2022/05/09 02:21:15;;;;;;;21.15;7.75;;;2.30;99.90;;;;;;5015939;28;20515;-42
2022/05/09 02:23:42;;;;;;;22.45;8.60;;;2.40;99.90;;;;;;5013671;28;20069;-41
2022/05/09 02:26:08;;;;;;;23.20;9.15;;;2.40;99.90;;;;;;5007923;28;23644;-41
2022/05/09 02:28:34;;;;;;;25.05;7.63;;;2.40;99.90;;;;;;5016288;28;20029;-42
2022/05/09 02:31:00;;;;;;;26.35;9.85;;;2.40;99.90;;;;;;5018140;28;20041;-41
2022/05/09 02:33:26;;;;;;;24.77;8.07;;;2.40;99.90;;;;;;5019317;28;20048;-41
2022/05/09 02:35:52;;;;;;;21.92;8.63;;;2.40;99.90;;;;;;5020278;28;20033;-41
2022/05/09 02:38:18;;;;;;;22.40;7.85;;;2.40;99.90;;;;;;5018176;28;20393;-45
2022/05/09 02:40:44;;;;;;;27.65;9.10;;;2.40;99.90;;;;;;5020752;28;20044;-41
2022/05/09 02:43:10;;;;;;;28.35;8.82;;;2.40;99.90;;;;;;5019564;28;20045;-42
2022/05/09 02:45:36;;;;;;;16.77;6.50;;;2.40;99.90;;;;;;5015762;28;20054;-41
2022/05/09 02:48:02;;;;;;;16.60;6.10;;;2.40;99.90;;;;;;5019215;28;20045;-41
2022/05/09 02:50:28;;;;;;;20.65;6.10;;;2.30;99.90;;;;;;5018820;28;20046;-41
2022/05/09 02:52:54;;;;;;;16.13;5.03;;;2.20;99.90;;;;;;5013913;28;20050;-42
2022/05/09 02:55:21;;;;;;;6.75;3.47;;;2.10;99.90;;;;;;5020314;28;20444;-45
2022/05/09 02:57:48;;;;;;;10.73;3.20;;;1.80;99.90;;;;;;5018288;28;20057;-45
2022/05/09 03:00:23;;;;;;;12.15;3.08;;;1.80;99.90;;;;;;5019787;28;20038;-42
2022/05/09 03:05:37;;;;;;;8.95;4.03;;;1.60;99.90;;;;;;5006051;28;20431;-42
2022/05/09 03:08:03;;;;;;;6.03;2.90;;;1.60;99.90;;;;;;5018140;28;20026;-41
2022/05/09 03:10:31;;;;;;;5.47;2.72;;;1.50;99.90;;;;;;5017077;28;20058;-41
2022/05/09 03:13:01;;;;;;;5.60;3.28;;;0.40;99.90;;;;;;5018638;28;20073;-41
2022/05/09 03:15:33;;;;;;;4.90;2.97;;;1.60;99.90;;;;;;5019371;28;20528;-40
2022/05/09 03:17:59;;;;;;;8.60;3.40;;;1.50;99.90;;;;;;5017144;28;20489;-41
2022/05/09 03:20:25;;;;;;;7.60;3.40;;;1.40;99.90;;;;;;5015383;28;20060;-41
2022/05/09 03:22:51;;;;;;;8.63;3.33;;;1.40;99.90;;;;;;5017542;28;20512;-43
2022/05/09 03:25:17;;;;;;;6.78;3.20;;;1.40;99.90;;;;;;5019240;28;20132;-41
2022/05/09 03:27:43;;;;;;;6.18;3.20;;;1.20;99.90;;;;;;5018884;28;20163;-40
2022/05/09 03:30:10;;;;;;;7.20;3.42;;;1.30;99.90;;;;;;5019853;28;20040;-41
2022/05/09 03:32:35;;;;;;;6.93;4.13;;;1.10;99.90;;;;;;5020589;28;20140;-42
2022/05/09 03:35:03;;;;;;;14.15;4.95;;;1.30;99.90;;;;;;5017225;28;20034;-43
2022/05/09 03:37:30;;;;;;;12.50;4.60;;;1.10;99.90;;;;;;5020953;28;20030;-42
2022/05/09 03:39:56;;;;;;;11.40;4.35;;;1.30;99.90;;;;;;5018021;28;20042;-41
2022/05/09 03:42:22;;;;;;;8.05;4.47;;;1.30;99.90;;;;;;5018456;28;20400;-42
2022/05/09 03:44:47;;;;;;;6.97;3.85;;;1.20;99.90;;;;;;5017668;28;20057;-44
2022/05/09 03:47:13;;;;;;;11.00;3.83;;;1.20;99.90;;;;;;5019338;28;20096;-42
2022/05/09 03:49:39;;;;;;;9.45;3.80;;;1.50;99.90;;;;;;5014218;28;20061;-48
2022/05/09 03:52:05;;;;;;;11.15;4.18;;;1.20;99.90;;;;;;5020148;28;20440;-43
2022/05/09 03:54:31;;;;;;;13.40;5.15;;;1.10;99.90;;;;;;5002811;28;20042;-41
2022/05/09 03:56:56;;;;;;;16.83;6.55;;;1.10;99.90;;;;;;5018807;28;20045;-41
2022/05/09 03:59:22;;;;;;;17.05;5.78;;;1.20;99.90;;;;;;5016191;28;20045;-41
2022/05/09 04:01:48;;;;;;;18.83;6.22;;;1.20;99.90;;;;;;5015572;28;20038;-41
2022/05/09 04:04:14;;;;;;;11.63;4.93;;;1.20;99.90;;;;;;5004466;28;20094;-41
2022/05/09 04:06:40;;;;;;;15.00;5.22;;;1.30;99.90;;;;;;5016186;28;20040;-40
2022/05/09 04:09:05;;;;;;;23.17;6.78;;;1.60;99.90;;;;;;5017967;28;20136;-41
2022/05/09 04:11:31;;;;;;;23.23;7.05;;;1.40;99.90;;;;;;5017349;28;20057;-41
2022/05/09 04:13:57;;;;;;;36.65;9.20;;;1.50;99.90;;;;;;5015833;28;20068;-42
2022/05/09 04:19:07;;;;;;;39.45;7.90;;;1.80;99.90;;;;;;5016836;28;20080;-41
2022/05/09 04:21:32;;;;;;;28.45;9.45;;;2.10;99.90;;;;;;5019587;28;20371;-41
2022/05/09 04:23:58;;;;;;;16.98;8.25;;;2.20;99.90;;;;;;5018522;28;20037;-41
2022/05/09 04:26:30;;;;;;;21.50;9.27;;;2.50;99.90;;;;;;5017410;28;20064;-42
2022/05/09 04:28:57;;;;;;;23.20;10.40;;;2.60;99.90;;;;;;5018252;28;20160;-41
2022/05/09 04:31:22;;;;;;;31.45;11.23;;;2.90;99.90;;;;;;5019361;28;20033;-48
2022/05/09 04:33:48;;;;;;;26.83;10.88;;;2.90;99.90;;;;;;5016758;28;20648;-43
2022/05/09 04:36:15;;;;;;;26.33;11.07;;;3.00;99.90;;;;;;5017285;28;20048;-41
2022/05/09 04:38:43;;;;;;;30.88;11.13;;;3.10;99.90;;;;;;5017485;28;20104;-41
2022/05/09 04:41:10;;;;;;;31.50;10.98;;;3.70;99.90;;;;;;5018561;28;20045;-41
2022/05/09 04:43:36;;;;;;;29.63;11.15;;;3.50;99.90;;;;;;5013881;28;20208;-42
2022/05/09 04:46:04;;;;;;;43.25;13.90;;;3.60;99.90;;;;;;5017093;28;20053;-42
2022/05/09 04:48:30;;;;;;;37.03;14.30;;;3.70;99.90;;;;;;5015524;28;20049;-42
2022/05/09 04:50:56;;;;;;;30.80;11.23;;;3.90;99.90;;;;;;5016420;28;20094;-43
2022/05/09 04:53:22;;;;;;;30.90;11.77;;;3.90;99.90;;;;;;5014645;28;20128;-41
2022/05/09 04:55:48;;;;;;;36.47;12.80;;;4.20;99.90;;;;;;5017749;28;20037;-41
2022/05/09 04:58:16;;;;;;;35.40;12.85;;;4.30;99.90;;;;;;5016369;28;20396;-40
2022/05/09 05:00:42;;;;;;;36.38;11.90;;;4.40;99.90;;;;;;5017478;28;20046;-42
2022/05/09 05:03:08;;;;;;;41.22;14.88;;;4.70;99.90;;;;;;5014800;28;20103;-41
2022/05/09 05:05:34;;;;;;;23.23;11.38;;;4.60;99.90;;;;;;5016344;28;20045;-41
2022/05/09 05:08:00;;;;;;;27.00;11.05;;;4.90;99.90;;;;;;5013024;28;20050;-40
2022/05/09 05:10:28;;;;;;;25.35;10.30;;;5.30;99.90;;;;;;5018718;28;20073;-41
2022/05/09 05:12:56;;;;;;;24.00;11.00;;;5.30;99.90;;;;;;5014978;28;20030;-41
2022/05/09 05:15:22;;;;;;;34.15;10.82;;;5.80;99.90;;;;;;5017140;28;20488;-40
2022/05/09 05:17:47;;;;;;;44.70;11.15;;;6.70;99.90;;;;;;5014562;28;20136;-40
2022/05/09 05:20:15;;;;;;;26.00;11.52;;;8.40;99.90;;;;;;5014968;28;20083;-40
2022/05/09 05:22:43;;;;;;;24.65;8.82;;;9.50;99.90;;;;;;5016964;28;20461;-42
2022/05/09 05:25:11;;;;;;;16.08;7.28;;;10.80;99.90;;;;;;5017270;28;20033;-42
2022/05/09 05:27:37;;;;;;;27.25;6.93;;;12.00;99.90;;;;;;5017077;28;20046;-46
2022/05/09 05:30:04;;;;;;;15.93;5.60;;;13.10;99.90;;;;;;5016321;28;20030;-42
2022/05/09 05:32:34;;;;;;;21.67;6.10;;;14.10;99.90;;;;;;5016293;28;20103;-42
2022/05/09 05:35:00;;;;;;;11.75;4.40;;;15.10;99.90;;;;;;5017317;28;20444;-42
2022/05/09 05:37:26;;;;;;;11.93;4.50;;;15.40;98.10;;;;;;5017890;28;20036;-41
2022/05/09 05:39:52;;;;;;;15.32;4.55;;;15.70;99.90;;;;;;5015138;28;20072;-41
2022/05/09 05:42:19;;;;;;;18.75;4.45;;;16.50;99.30;;;;;;5015216;28;20108;-40
2022/05/09 05:44:47;;;;;;;16.52;4.80;;;16.30;97.90;;;;;;5015825;28;20143;-43
2022/05/09 05:47:14;;;;;;;15.38;4.50;;;17.60;94.80;;;;;;5016558;28;20096;-42
2022/05/09 05:49:41;;;;;;;17.63;4.47;;;18.40;91.60;;;;;;5015412;28;20452;-42
2022/05/09 05:52:08;;;;;;;13.68;3.15;;;19.20;89.30;;;;;;5015590;28;20069;-42
2022/05/09 05:54:39;;;;;;;17.10;3.80;;;19.70;84.60;;;;;;5015169;28;20256;-41
2022/05/09 05:57:19;;;;;;;17.15;3.75;;;20.30;79.60;;;;;;5013931;28;20346;-42
2022/05/09 05:59:50;;;;;;;13.43;4.03;;;20.80;76.00;;;;;;5017065;28;20109;-43
2022/05/09 06:02:16;;;;;;;26.63;5.72;;;21.20;72.00;;;;;;5006575;28;20041;-42
2022/05/09 06:04:42;;;;;;;16.13;3.83;;;21.50;71.10;;;;;;5015333;28;20049;-43
2022/05/09 06:07:08;;;;;;;8.52;3.55;;;21.80;69.80;;;;;;5020905;28;20041;-42
2022/05/09 06:09:33;;;;;;;10.52;3.00;;;22.50;68.20;;;;;;5021345;28;20104;-45
2022/05/09 06:12:01;;;;;;;11.75;3.20;;;22.70;65.50;;;;;;5019279;28;20041;-41
2022/05/09 06:14:27;;;;;;;13.05;4.30;;;23.00;63.90;;;;;;5018194;28;20096;-41
2022/05/09 06:16:54;;;;;;;10.70;2.95;;;23.20;62.60;;;;;;5018475;28;20053;-42
2022/05/09 06:19:21;;;;;;;13.57;3.67;;;23.10;61.40;;;;;;5018072;28;20116;-42
2022/05/09 06:21:47;;;;;;;14.18;3.78;;;22.30;62.50;;;;;;5019470;28;20045;-42
2022/05/09 06:24:13;;;;;;;15.80;4.22;;;22.80;62.60;;;;;;5020640;28;20443;-42
2022/05/09 06:26:40;;;;;;;14.02;3.92;;;23.50;61.00;;;;;;5019946;28;20463;-43
2022/05/09 06:29:06;;;;;;;16.23;3.83;;;23.90;59.50;;;;;;5015615;28;20044;-44
2022/05/09 06:31:36;;;;;;;11.48;3.58;;;24.20;58.40;;;;;;5019796;28;20038;-42
2022/05/09 06:34:03;;;;;;;12.52;3.90;;;24.60;56.90;;;;;;5035994;28;20054;-44
2022/05/09 06:36:34;;;;;;;14.15;4.07;;;24.70;56.60;;;;;;5017669;28;20049;-43
2022/05/09 06:39:00;;;;;;;10.88;3.70;;;25.20;55.60;;;;;;5019145;28;20153;-43
2022/05/09 06:41:25;;;;;;;12.73;3.72;;;25.60;55.20;;;;;;5015467;28;20037;-43
2022/05/09 06:43:51;;;;;;;12.52;3.10;;;25.80;54.00;;;;;;5019373;28;20471;-43
2022/05/09 06:46:17;;;;;;;8.57;2.58;;;26.10;53.40;;;;;;5018185;28;20099;-42
2022/05/09 06:48:42;;;;;;;14.18;3.38;;;26.20;52.50;;;;;;5017548;28;20033;-43
2022/05/09 06:51:08;;;;;;;10.88;3.35;;;26.70;52.40;;;;;;5015244;28;20063;-41
2022/05/09 06:53:34;;;;;;;8.63;3.10;;;27.10;52.20;;;;;;5020425;28;20065;-42
2022/05/09 06:55:59;;;;;;;13.43;3.85;;;27.50;50.70;;;;;;5015663;28;20042;-46
2022/05/09 06:58:25;;;;;;;11.68;4.43;;;27.90;50.40;;;;;;5017860;28;20030;-47
2022/05/09 07:00:52;;;;;;;14.30;4.13;;;28.60;49.40;;;;;;5034363;28;20034;-41
2022/05/09 07:03:19;;;;;;;16.02;3.42;;;29.20;48.00;;;;;;5017030;28;20111;-42
2022/05/09 07:05:47;;;;;;;12.73;3.17;;;29.30;46.90;;;;;;5016538;28;20060;-42
2022/05/09 07:08:14;;;;;;;12.85;3.20;;;29.60;46.20;;;;;;5017191;28;20498;-44
2022/05/09 07:10:40;;;;;;;15.73;4.00;;;29.60;45.60;;;;;;5020661;28;20097;-46
2022/05/09 07:13:06;;;;;;;13.52;3.42;;;29.90;53.20;;;;;;5019579;28;20056;-44
2022/05/09 07:15:33;;;;;;;10.25;3.60;;;30.20;53.50;;;;;;4992079;28;20038;-45
2022/05/09 07:18:00;;;;;;;7.38;2.38;;;30.50;54.60;;;;;;5016445;28;20441;-42
2022/05/09 07:20:28;;;;;;;10.57;2.50;;;30.80;59.70;;;;;;5016974;28;20087;-43
2022/05/09 07:22:56;;;;;;;16.02;3.67;;;30.20;58.20;;;;;;5018784;28;20045;-43
2022/05/09 07:25:23;;;;;;;11.48;2.65;;;30.60;57.90;;;;;;5016909;28;20045;-43
2022/05/09 07:27:50;;;;;;;13.40;3.20;;;30.70;58.50;;;;;;5018701;28;20037;-45
2022/05/09 07:30:19;;;;;;;11.00;3.15;;;31.00;45.00;;;;;;5018065;28;20544;-50
2022/05/09 07:32:46;;;;;;;10.15;2.80;;;31.80;49.90;;;;;;5016389;28;20148;-45
2022/05/09 07:35:15;;;;;;;7.30;2.75;;;31.90;50.80;;;;;;5015038;28;20073;-43
2022/05/09 07:37:41;;;;;;;10.38;3.17;;;31.80;47.80;;;;;;5018435;28;20455;-43
2022/05/09 07:40:12;;;;;;;19.75;4.18;;;31.70;46.00;;;;;;5008795;28;20033;-43
2022/05/09 07:42:40;;;;;;;11.95;3.75;;;31.60;45.70;;;;;;5015031;28;20487;-42
2022/05/09 07:45:07;;;;;;;9.10;2.90;;;31.60;46.00;;;;;;5012722;28;20420;-43
2022/05/09 07:47:33;;;;;;;9.98;2.88;;;31.90;48.40;;;;;;5019901;28;20063;-46
2022/05/09 07:49:58;;;;;;;9.77;2.88;;;31.60;43.90;;;;;;5017252;28;20567;-45
2022/05/09 07:52:24;;;;;;;12.23;3.30;;;31.90;39.60;;;;;;5020096;28;20430;-44
2022/05/09 07:54:50;;;;;;;11.23;4.28;;;32.10;39.70;;;;;;5017838;28;20489;-47
2022/05/09 07:57:17;;;;;;;8.27;3.25;;;32.90;39.50;;;;;;5017101;28;20037;-46
2022/05/09 07:59:42;;;;;;;7.82;2.55;;;33.40;39.00;;;;;;5014957;28;20404;-48
2022/05/09 08:02:08;;;;;;;9.20;3.20;;;33.80;38.80;;;;;;5014185;28;20037;-44
2022/05/09 08:04:34;;;;;;;10.50;3.63;;;34.60;37.90;;;;;;5015178;28;20042;-46
2022/05/09 08:07:01;;;;;;;10.32;3.10;;;35.00;37.10;;;;;;5017150;28;20041;-48
2022/05/09 08:09:28;;;;;;;10.75;4.03;;;35.10;36.40;;;;;;5014178;28;20806;-44
2022/05/09 08:11:54;;;;;;;9.80;3.17;;;34.80;35.80;;;;;;5016359;28;20048;-47
2022/05/09 08:14:20;;;;;;;7.88;2.88;;;34.80;35.30;;;;;;5015790;28;20065;-47
2022/05/09 08:16:45;;;;;;;10.35;3.15;;;34.80;35.90;;;;;;5006606;28;20726;-47
2022/05/09 08:19:11;;;;;;;7.70;2.65;;;34.90;35.20;;;;;;5031666;28;20037;-43
2022/05/09 08:21:38;;;;;;;8.38;3.28;;;35.40;34.70;;;;;;5013462;28;20481;-47
2022/05/09 08:24:05;;;;;;;8.63;2.67;;;35.40;34.20;;;;;;5016748;28;20128;-44
2022/05/09 08:26:32;;;;;;;10.15;3.17;;;35.60;34.10;;;;;;5015846;28;20776;-45
2022/05/09 08:28:57;;;;;;;11.00;3.05;;;36.10;33.60;;;;;;5015996;28;20390;-49
2022/05/09 08:31:23;;;;;;;10.50;2.95;;;36.50;33.50;;;;;;5014027;28;20064;-45
2022/05/09 08:33:52;;;;;;;10.35;2.65;;;36.60;33.40;;;;;;5018808;28;20077;-46
2022/05/09 08:39:07;;;;;;;9.10;2.38;;;36.90;32.80;;;;;;5016891;28;20048;-46
2022/05/09 08:41:56;;;;;;;7.68;3.15;;;37.60;32.80;;;;;;5017205;28;20488;-43
2022/05/09 08:44:37;;;;;;;10.50;2.60;;;38.20;32.80;;;;;;5014303;28;20386;-45
2022/05/09 08:47:33;;;;;;;10.77;3.28;;;38.20;31.90;;;;;;5015200;28;20104;-45
2022/05/09 08:50:10;;;;;;;10.10;2.85;;;38.30;31.50;;;;;;5016403;28;20041;-48
2022/05/09 08:52:36;;;;;;;10.25;2.65;;;38.50;31.30;;;;;;5014765;28;20448;-44
2022/05/09 08:55:03;;;;;;;9.80;2.35;;;38.70;30.80;;;;;;5016643;28;20045;-43
2022/05/09 08:57:35;;;;;;;6.13;2.30;;;39.00;30.50;;;;;;5017207;28;20052;-45
2022/05/09 09:00:05;;;;;;;11.00;2.50;;;39.50;30.40;;;;;;5017401;28;20045;-46
2022/05/09 09:02:46;;;;;;;11.88;2.40;;;39.60;29.70;;;;;;5014603;28;20037;-43
2022/05/09 09:05:20;;;;;;;8.45;2.83;;;39.00;29.20;;;;;;5017261;28;20044;-45
2022/05/09 09:07:52;;;;;;;9.95;2.70;;;38.80;29.90;;;;;;5014413;28;20072;-42
2022/05/09 09:10:46;;;;;;;8.43;2.22;;;38.60;29.60;;;;;;5018086;28;20072;-46
2022/05/09 09:13:19;;;;;;;8.32;2.25;;;39.00;29.60;;;;;;5018248;28;20524;-44
2022/05/09 09:16:15;;;;;;;6.53;2.05;;;39.30;30.30;;;;;;5006157;28;20112;-43
2022/05/09 09:19:17;;;;;;;7.45;2.13;;;39.90;29.50;;;;;;5013307;28;20085;-47
2022/05/09 09:22:06;;;;;;;9.35;2.25;;;40.10;29.60;;;;;;5016916;28;20033;-43
2022/05/09 09:25:07;;;;;;;9.80;2.33;;;40.30;29.40;;;;;;5017615;28;20045;-42
2022/05/09 09:27:42;;;;;;;8.73;2.22;;;40.20;28.90;;;;;;4995794;28;20049;-44
2022/05/09 09:30:11;;;;;;;9.23;2.67;;;40.40;28.70;;;;;;5017310;28;20054;-42
2022/05/09 09:32:55;;;;;;;7.35;2.00;;;40.70;28.40;;;;;;5031857;28;20473;-44
2022/05/09 09:36:00;;;;;;;6.80;2.05;;;40.90;28.90;;;;;;5007392;28;20046;-43
2022/05/09 09:38:42;;;;;;;10.20;1.75;;;41.00;28.00;;;;;;5015060;28;20546;-43
2022/05/09 09:41:31;;;;;;;9.88;2.33;;;40.70;28.80;;;;;;5020163;28;20053;-43
2022/05/09 09:44:17;;;;;;;7.88;1.85;;;40.90;28.90;;;;;;5022439;28;20041;-45
2022/05/09 09:47:24;;;;;;;9.15;1.98;;;40.50;26.90;;;;;;5019877;28;20064;-45
2022/05/09 09:50:13;;;;;;;8.45;1.80;;;40.30;28.20;;;;;;4981198;28;20150;-46
2022/05/09 09:52:46;;;;;;;7.57;1.90;;;40.20;28.80;;;;;;5019782;28;20053;-42
2022/05/09 09:55:33;;;;;;;5.18;1.73;;;39.40;28.00;;;;;;5036875;28;20480;-45
2022/05/09 09:58:19;;;;;;;13.13;2.15;;;39.20;29.50;;;;;;5019589;28;20049;-47
2022/05/09 10:00:46;;;;;;;6.57;1.33;;;39.30;29.70;;;;;;5015722;28;20037;-42
2022/05/09 10:03:22;;;;;;;6.72;1.52;;;39.50;28.80;;;;;;5018757;28;20048;-45
2022/05/09 10:05:50;;;;;;;7.88;1.88;;;39.70;29.60;;;;;;5033080;28;20061;-46
2022/05/09 10:08:32;;;;;;;9.05;2.33;;;39.60;29.60;;;;;;5018486;28;20073;-43
2022/05/09 10:11:03;;;;;;;9.75;2.40;;;39.70;28.50;;;;;;5003130;28;20072;-43
2022/05/09 10:13:34;;;;;;;7.03;1.30;;;39.40;28.50;;;;;;5018842;28;20050;-46
2022/05/09 10:16:03;;;;;;;5.57;1.52;;;39.10;28.70;;;;;;5010225;28;20045;-44
2022/05/09 10:18:32;;;;;;;7.70;2.00;;;39.00;28.80;;;;;;5018798;28;20038;-43
2022/05/09 10:21:09;;;;;;;9.27;1.27;;;38.80;28.30;;;;;;5021909;28;20033;-42
2022/05/09 10:26:34;;;;;;;9.10;2.05;;;38.70;28.50;;;;;;5018683;28;20068;-46
2022/05/09 10:29:05;;;;;;;8.98;1.85;;;38.40;29.10;;;;;;5019494;28;20048;-43
2022/05/09 10:31:53;;;;;;;6.43;1.40;;;38.30;29.10;;;;;;5018747;28;20037;-46
2022/05/09 10:34:52;;;;;;;5.32;1.38;;;38.60;28.70;;;;;;5017351;28;20436;-44
2022/05/09 10:37:28;;;;;;;7.78;1.50;;;38.50;30.00;;;;;;5014470;28;20046;-44
2022/05/09 10:40:07;;;;;;;5.90;0.93;;;38.50;29.60;;;;;;5019875;28;20040;-47
2022/05/09 10:42:46;;;;;;;4.82;1.17;;;38.30;28.80;;;;;;5031966;28;20038;-47
2022/05/09 10:45:24;;;;;;;9.45;1.40;;;37.40;28.90;;;;;;5014641;28;20151;-43
2022/05/09 10:48:12;;;;;;;6.82;1.35;;;36.70;29.90;;;;;;5014441;28;20106;-43
2022/05/09 10:50:50;;;;;;;5.53;1.10;;;34.80;29.90;;;;;;5018484;28;20042;-46
2022/05/09 10:53:40;;;;;;;4.47;1.08;;;33.10;31.00;;;;;;5016458;28;20041;-44
2022/05/09 10:56:24;;;;;;;4.88;1.17;;;31.80;36.00;;;;;;5020056;28;20045;-43
2022/05/09 10:58:58;;;;;;;5.13;0.85;;;30.70;34.20;;;;;;5015986;28;20091;-43
2022/05/09 11:01:56;;;;;;;4.45;0.80;;;29.60;34.10;;;;;;5017458;28;20076;-47
2022/05/09 11:04:24;;;;;;;7.05;2.00;;;28.80;35.40;;;;;;5018083;28;20063;-44
2022/05/09 11:07:35;;;;;;;5.22;1.02;;;27.90;36.40;;;;;;5015774;28;20455;-44
2022/05/09 11:10:24;;;;;;;6.00;1.38;;;27.30;37.20;;;;;;5019242;28;20052;-46
2022/05/09 11:13:05;;;;;;;7.80;1.20;;;26.70;38.10;;;;;;5015469;28;20045;-48
2022/05/09 11:15:57;;;;;;;8.18;1.50;;;26.30;38.00;;;;;;5016982;28;20069;-49
2022/05/09 11:18:35;;;;;;;6.28;1.13;;;25.70;39.80;;;;;;5015033;28;20038;-47
2022/05/09 11:21:23;;;;;;;6.65;1.10;;;25.50;40.40;;;;;;5018433;28;20060;-43
2022/05/09 11:24:11;;;;;;;8.95;1.30;;;25.40;55.90;;;;;;5015688;28;20408;-42
2022/05/09 11:26:37;;;;;;;6.07;1.10;;;;;;;;;;5017510;28;20049;-45
2022/05/09 11:29:09;;;;;;;10.45;1.42;;;25.10;61.60;;;;;;5009264;28;20113;-43
2022/05/09 11:32:17;;;;;;;5.72;1.38;;;24.20;75.10;;;;;;5018404;28;20069;-43
2022/05/09 11:34:53;;;;;;;9.40;1.70;;;24.10;44.70;;;;;;5018060;28;20076;-45
2022/05/09 11:37:38;;;;;;;9.18;1.42;;;24.00;47.40;;;;;;5018730;28;20122;-43
2022/05/09 11:40:21;;;;;;;8.25;1.58;;;23.80;45.90;;;;;;5018316;28;20409;-42
2022/05/09 11:43:28;;;;;;;8.10;1.15;;;23.70;42.50;;;;;;5018281;28;20053;-44
2022/05/09 11:46:17;;;;;;;5.57;1.38;;;23.50;42.60;;;;;;5017324;28;20111;-42
2022/05/09 11:48:53;;;;;;;5.72;1.20;;;23.40;44.30;;;;;;5017048;28;20041;-42
2022/05/09 11:51:27;;;;;;;5.68;1.20;;;23.30;46.80;;;;;;5016324;28;20034;-44
2022/05/09 11:53:59;;;;;;;8.95;1.35;;;23.30;50.30;;;;;;5017547;28;20041;-46
2022/05/09 11:56:25;;;;;;;7.40;0.98;;;23.30;49.90;;;;;;5015980;28;20038;-45
2022/05/09 11:58:52;;;;;;;12.48;2.15;;;23.20;50.40;;;;;;5006757;28;20108;-45
2022/05/09 12:01:56;;;;;;;7.55;1.90;;;23.20;54.20;;;;;;5015189;28;20060;-43
2022/05/09 12:04:34;;;;;;;7.85;1.55;;;23.00;45.70;;;;;;5017980;28;20123;-51
2022/05/09 12:07:19;;;;;;;9.35;1.00;;;23.00;48.00;;;;;;5016103;28;20430;-44
2022/05/09 12:10:16;;;;;;;5.18;1.23;;;23.00;44.70;;;;;;5017489;28;20392;-44
2022/05/09 12:12:44;;;;;;;6.88;1.63;;;23.00;46.30;;;;;;5016692;28;20611;-43
2022/05/09 12:15:33;;;;;;;4.60;0.80;;;22.80;51.50;;;;;;5019573;28;20052;-44
2022/05/09 12:17:58;;;;;;;8.55;1.25;;;22.70;47.80;;;;;;5019952;28;20087;-45
2022/05/09 12:20:27;;;;;;;5.35;0.93;;;22.70;49.80;;;;;;5016715;28;20063;-45
2022/05/09 12:22:56;;;;;;;5.82;1.02;;;22.70;47.50;;;;;;5015745;28;20122;-47
2022/05/09 12:25:38;;;;;;;10.23;1.58;;;22.80;56.00;;;;;;5014760;28;20457;-48
2022/05/09 12:28:22;;;;;;;7.00;1.08;;;22.80;56.60;;;;;;5018547;28;20034;-47
2022/05/09 12:30:54;;;;;;;9.57;1.63;;;22.60;54.20;;;;;;5016392;28;20082;-43
2022/05/09 12:33:22;;;;;;;6.93;1.30;;;22.80;52.80;;;;;;5014248;28;20748;-47
2022/05/09 12:35:51;;;;;;;4.60;1.33;;;22.80;53.90;;;;;;5015141;28;20034;-45
2022/05/09 12:38:24;;;;;;;6.88;1.17;;;22.70;54.60;;;;;;5017555;28;20853;-45
2022/05/09 12:41:11;;;;;;;4.95;1.13;;;22.80;53.30;;;;;;5018567;28;20025;-45
2022/05/09 12:43:39;;;;;;;7.85;1.02;;;22.80;53.30;;;;;;5015789;28;20080;-47
2022/05/09 12:46:08;;;;;;;6.25;1.33;;;22.70;54.10;;;;;;5018109;28;20049;-45
2022/05/09 12:48:38;;;;;;;7.18;1.50;;;22.70;55.20;;;;;;5018271;28;20042;-46
2022/05/09 12:51:08;;;;;;;7.53;1.38;;;22.50;53.20;;;;;;5017985;28;20029;-47
2022/05/09 12:53:36;;;;;;;7.30;1.02;;;22.90;54.10;;;;;;5014271;28;20045;-51
2022/05/09 12:56:18;;;;;;;5.18;0.90;;;22.60;53.80;;;;;;5019572;28;20037;-46
2022/05/09 12:59:00;;;;;;;9.85;1.63;;;22.60;52.40;;;;;;5017009;28;20038;-47
2022/05/09 13:01:27;;;;;;;5.60;1.00;;;22.60;52.80;;;;;;5022189;28;20030;-47
2022/05/09 13:03:58;;;;;;;4.38;0.60;;;22.60;52.10;;;;;;5022022;28;20049;-49
2022/05/09 13:06:27;;;;;;;6.78;1.45;;;22.60;55.40;;;;;;5019512;28;20449;-44
2022/05/09 13:08:53;;;;;;;7.20;0.95;;;22.70;52.80;;;;;;5017085;28;20148;-45
2022/05/09 13:11:23;;;;;;;7.43;1.38;;;22.70;51.40;;;;;;5019037;28;20040;-47
2022/05/09 13:14:15;;;;;;;7.93;1.20;;;22.80;52.30;;;;;;5015311;28;20032;-47
2022/05/09 13:16:42;;;;;;;;;;;22.90;49.60;;;;;;5015513;28;20078;-47
2022/05/09 13:19:15;;;;;;;8.65;1.10;;;22.80;51.70;;;;;;5016492;28;20011;-48
2022/05/09 13:21:42;;;;;;;8.77;1.58;;;22.90;51.60;;;;;;5019674;28;20026;-45
2022/05/09 13:24:21;;;;;;;5.57;1.35;;;22.50;52.10;;;;;;5015816;28;20049;-44